Time;durP1;ratioP1;P1;durP2;ratioP2;P2;SDS_P1;SDS_P2;PMS_P1;PMS_P2;Temp;Humidity;BMP_temperature;BMP_pressure;BME280_temperature;BME280_humidity;BME280_pressure;Samples;Min_cycle;Max_cycle;Signal;HPM_P1;HPM_P2
2023/02/16 00:01:31;;;;;;;81.30;36.50;;;;;;;-0.05;87.44;100670.62;217698;1257;140284;-66
2023/02/16 00:06:36;;;;;;;76.90;38.60;;;;;;;-0.10;87.31;100669.73;218132;1257;140318;-66
2023/02/16 00:17:06;;;;;;;74.70;35.10;;;;;;;-0.18;87.64;100656.52;217979;1257;139977;-67
2023/02/16 00:22:12;;;;;;;67.90;36.90;;;;;;;-0.24;87.43;100655.65;218140;1256;140731;-65
2023/02/16 00:27:17;;;;;;;78.70;35.40;;;;;;;-0.29;87.34;100655.39;218086;1257;140724;-68
2023/02/16 00:32:21;;;;;;;76.70;34.00;;;;;;;-0.30;87.13;100647.69;217994;1257;139853;-66
2023/02/16 00:37:26;;;;;;;71.70;34.90;;;;;;;-0.33;87.37;100646.77;218574;1256;140001;-66
2023/02/16 00:42:33;;;;;;;70.30;34.50;;;;;;;-0.36;87.16;100644.70;218426;1256;142088;-65
2023/02/16 00:47:40;;;;;;;68.80;31.40;;;;;;;-0.44;87.15;100645.43;219209;1256;139542;-67
2023/02/16 00:52:46;;;;;;;82.30;39.40;;;;;;;-0.51;86.94;100637.36;218724;1257;140464;-67
2023/02/16 00:57:55;;;;;;;79.20;36.20;;;;;;;-0.55;86.99;100642.27;220457;1256;140793;-67
2023/02/16 01:03:05;;;;;;;73.10;36.20;;;;;;;-0.61;87.34;100637.28;218113;1257;139815;-67
2023/02/16 01:13:55;;;;;;;76.30;39.70;;;;;;;-0.52;87.36;100632.63;220587;1256;139645;-70
2023/02/16 01:19:00;;;;;;;78.00;34.10;;;;;;;-0.52;87.40;100620.75;218452;1256;140858;-68
2023/02/16 01:24:08;;;;;;;74.10;35.60;;;;;;;-0.50;87.37;100619.11;219320;1256;140951;-70
2023/02/16 01:29:22;;;;;;;71.80;36.20;;;;;;;-0.48;87.27;100620.36;217821;1257;141121;-68
2023/02/16 01:34:26;;;;;;;67.50;36.70;;;;;;;-0.47;87.39;100620.27;218232;1256;140991;-68
2023/02/16 01:39:31;;;;;;;62.70;34.60;;;;;;;-0.53;87.50;100616.41;217852;1257;139771;-69
2023/02/16 01:44:42;;;;;;;66.20;32.60;;;;;;;-0.59;87.17;100621.85;218556;1256;140127;-69
2023/02/16 01:49:46;;;;;;;71.20;34.10;;;;;;;-0.63;86.74;100617.20;218209;1256;140063;-68
2023/02/16 01:54:54;;;;;;;78.20;34.70;;;;;;;-0.69;87.10;100608.86;218246;1257;140528;-70
2023/02/16 02:00:48;;;;;;;74.00;33.90;;;;;;;-0.73;87.16;100606.55;217693;1256;140053;-69
2023/02/16 02:05:53;;;;;;;62.10;30.60;;;;;;;-0.80;87.24;100599.72;217911;1258;141468;-69
2023/02/16 02:11:20;;;;;;;72.00;32.60;;;;;;;-0.85;86.91;100596.05;217761;1256;139904;-70
2023/02/16 02:16:27;;;;;;;60.70;35.80;;;;;;;-0.87;87.27;100598.42;217755;1257;141237;-69
2023/02/16 02:27:52;;;;;;;56.10;27.50;;;;;;;-0.95;87.13;100577.23;217241;1257;139927;-66
2023/02/16 02:33:17;;;;;;;60.50;31.80;;;;;;;-0.97;87.28;100562.45;218327;1256;140092;-67
2023/02/16 02:38:51;;;;;;;59.80;29.20;;;;;;;-1.04;87.51;100552.24;218261;1256;139546;-67
2023/02/16 02:44:05;;;;;;;55.90;29.20;;;;;;;-1.09;87.54;100546.24;219405;1256;140078;-67
2023/02/16 02:49:10;;;;;;;68.40;30.60;;;;;;;-1.11;87.27;100545.14;219429;1255;140748;-68
2023/02/16 03:05:14;;;;;;;66.30;31.30;;;;;;;-1.02;87.62;100543.29;220466;1256;140083;-67
2023/02/16 03:15:54;;;;;;;57.40;28.70;;;;;;;-1.00;87.08;100536.89;218633;1256;141285;-67
2023/02/16 03:31:51;;;;;;;64.30;31.10;;;;;;;-1.22;87.39;100536.56;218636;1257;141081;-68
2023/02/16 03:36:59;;;;;;;62.30;32.30;;;;;;;-1.22;87.66;100528.22;218935;1257;140251;-68
2023/02/16 03:42:03;;;;;;;;;;;;;;;-1.19;87.20;100512.81;218686;1257;141105;-67
2023/02/16 03:47:09;;;;;;;61.80;35.90;;;;;;;-1.26;87.30;100509.27;218298;1256;125818;-67
2023/02/16 03:52:14;;;;;;;57.90;31.00;;;;;;;-1.29;87.65;100503.76;218157;1257;139508;-67
2023/02/16 03:57:18;;;;;;;65.00;31.70;;;;;;;-1.31;87.44;100503.23;218581;1256;139489;-66
2023/02/16 04:02:24;;;;;;;68.60;33.30;;;;;;;-1.25;88.09;100512.46;217905;1256;141342;-66
2023/02/16 04:07:29;;;;;;;59.80;33.10;;;;;;;-1.18;87.99;100511.11;219083;1256;139806;-68
2023/02/16 04:12:37;;;;;;;63.70;31.60;;;;;;;-1.22;87.65;100509.77;218400;1259;139656;-66
2023/02/16 04:17:42;;;;;;;63.70;32.10;;;;;;;-1.22;87.83;100505.07;218895;1256;140313;-67
2023/02/16 04:22:48;;;;;;;56.60;28.60;;;;;;;-1.21;87.62;100499.75;218342;1256;139714;-68
2023/02/16 04:27:54;;;;;;;55.50;25.60;;;;;;;-1.29;87.74;100493.30;217956;1260;140228;-67
2023/02/16 04:32:58;;;;;;;66.30;30.10;;;;;;;-1.34;87.47;100494.65;218757;1256;141114;-67
2023/02/16 04:38:03;;;;;;;65.60;33.20;;;;;;;-1.35;87.55;100497.52;217808;1256;140004;-67
2023/02/16 04:43:10;;;;;;;51.60;25.30;;;;;;;-1.32;87.82;100499.55;218529;1256;140444;-67
2023/02/16 04:48:14;;;;;;;67.20;31.10;;;;;;;-1.39;87.47;100492.29;219702;1256;140758;-68
2023/02/16 04:53:19;;;;;;;67.00;31.90;;;;;;;-1.37;87.46;100493.52;219040;1256;139944;-67
2023/02/16 04:58:23;;;;;;;54.60;27.80;;;;;;;-1.36;87.86;100489.06;220497;1256;139954;-68
2023/02/16 05:03:27;;;;;;;62.50;31.00;;;;;;;-1.33;87.63;100487.27;219623;1256;139702;-66
2023/02/16 05:08:32;;;;;;;64.00;34.60;;;;;;;-1.30;87.65;100488.89;219442;1256;141003;-67
2023/02/16 05:18:59;;;;;;;63.00;31.50;;;;;;;-1.22;87.71;100492.32;219940;1256;140223;-66
2023/02/16 05:24:08;;;;;;;68.90;34.20;;;;;;;-1.17;87.91;100496.39;220142;1256;140063;-67
2023/02/16 05:29:11;;;;;;;;;;;;;;;-1.12;87.47;100489.61;218307;1260;140299;-67
2023/02/16 05:34:14;;;;;;;51.10;26.40;;;;;;;-1.15;87.28;100482.90;217804;1260;125919;-68
2023/02/16 05:39:20;;;;;;;64.40;32.60;;;;;;;-1.22;87.53;100483.30;218501;1256;139516;-67
2023/02/16 05:44:24;;;;;;;65.60;32.90;;;;;;;-1.23;87.77;100482.86;218608;1257;139872;-67
2023/02/16 05:49:29;;;;;;;64.10;32.20;;;;;;;-1.17;87.79;100483.63;218672;1256;140894;-66
2023/02/16 05:54:33;;;;;;;55.90;29.80;;;;;;;-1.15;87.54;100484.36;218237;1259;140043;-66
2023/02/16 05:59:36;;;;;;;58.20;32.30;;;;;;;-1.21;87.68;100483.52;217814;1259;139547;-68
2023/02/16 06:04:40;;;;;;;67.20;32.10;;;;;;;-1.27;87.60;100483.39;218933;1256;139904;-69
2023/02/16 06:09:43;;;;;;;62.70;31.40;;;;;;;-1.24;87.82;100479.22;217966;1256;141896;-64
2023/02/16 06:14:47;;;;;;;64.10;32.00;;;;;;;-1.18;87.60;100481.85;217549;1257;139985;-62
2023/02/16 06:19:51;;;;;;;61.40;31.90;;;;;;;-1.13;87.88;100484.83;218156;1259;141560;-62
2023/02/16 06:24:55;;;;;;;60.50;28.10;;;;;;;-1.11;87.69;100482.58;219014;1256;139191;-66
2023/02/16 06:30:01;;;;;;;63.10;30.30;;;;;;;-1.08;87.80;100482.45;219098;1256;141055;-66
2023/02/16 06:35:05;;;;;;;67.80;32.10;;;;;;;-0.96;87.65;100482.77;219076;1259;140155;-62
2023/02/16 06:40:13;;;;;;;64.10;32.20;;;;;;;-0.88;87.46;100485.95;219990;1257;140759;-68
2023/02/16 06:45:17;;;;;;;47.60;24.80;;;;;;;-0.72;87.97;100488.73;219671;1256;140768;-68
2023/02/16 06:50:21;;;;;;;60.20;27.50;;;;;;;-0.61;87.65;100480.64;219438;1256;139754;-67
2023/02/16 06:55:25;;;;;;;64.60;33.10;;;;;;;-0.41;87.40;100481.86;220023;1256;141014;-65
2023/02/16 07:00:29;;;;;;;39.60;21.40;;;;;;;-0.13;88.00;100485.65;219637;1257;140861;-66
2023/02/16 07:05:33;;;;;;;62.50;29.60;;;;;;;0.22;88.13;100479.41;219336;1256;139666;-63
2023/02/16 07:10:42;;;;;;;60.40;31.00;;;;;;;0.67;87.90;100475.63;219260;1256;140354;-67
2023/02/16 07:15:55;;;;;;;52.60;28.30;;;;;;;1.26;88.05;100476.02;217605;1259;139558;-65
2023/02/16 07:21:11;;;;;;;49.90;29.30;;;;;;;1.93;87.41;100469.50;218371;1256;140274;-64
2023/02/16 07:26:22;;;;;;;46.30;24.40;;;;;;;2.77;86.93;100470.73;218199;1259;139953;-67
2023/02/16 07:31:26;;;;;;;66.10;32.00;;;;;;;3.35;86.17;100461.28;219320;1256;140625;-69
2023/02/16 07:36:30;;;;;;;56.50;29.10;;;;;;;3.75;85.45;100468.27;218413;1256;139986;-67
2023/02/16 07:41:34;;;;;;;56.70;29.20;;;;;;;4.08;85.03;100473.16;217348;1256;139099;-66
2023/02/16 07:46:37;;;;;;;40.30;26.20;;;;;;;4.30;84.38;100473.29;217728;1257;139208;-64
2023/02/16 07:51:41;;;;;;;58.60;29.50;;;;;;;4.50;84.07;100476.20;217909;1256;139683;-68
2023/02/16 07:56:45;;;;;;;56.30;29.60;;;;;;;4.59;83.25;100474.42;218048;1256;139731;-68
2023/02/16 08:01:50;;;;;;;55.50;28.70;;;;;;;4.56;82.41;100471.98;217736;1260;140568;-66
2023/02/16 08:06:55;;;;;;;47.20;25.80;;;;;;;4.51;82.61;100473.81;217877;1257;139793;-67
2023/02/16 08:12:00;;;;;;;52.00;28.50;;;;;;;4.44;82.07;100471.74;217494;1260;139433;-65
2023/02/16 08:17:05;;;;;;;52.90;29.00;;;;;;;4.44;81.96;100473.44;218290;1257;139983;-66
2023/02/16 08:22:12;;;;;;;51.00;26.20;;;;;;;4.46;81.55;100478.41;217815;1257;139858;-65
2023/02/16 08:27:18;;;;;;;51.40;27.80;;;;;;;4.39;81.18;100479.66;218908;1260;140173;-69
2023/02/16 08:32:23;;;;;;;49.70;28.00;;;;;;;4.37;81.14;100475.02;217556;1256;142302;-66
2023/02/16 08:37:27;;;;;;;45.20;24.50;;;;;;;4.40;81.09;100473.98;217748;1256;140485;-65
2023/02/16 08:42:31;;;;;;;42.00;22.80;;;;;;;4.38;80.94;100475.78;217342;1257;467791;-66
2023/02/16 08:47:35;;;;;;;49.00;27.30;;;;;;;4.41;80.61;100473.69;220147;1257;140857;-66
2023/02/16 08:52:39;;;;;;;52.00;26.00;;;;;;;4.49;80.84;100469.08;217999;1256;139492;-66
2023/02/16 08:57:44;;;;;;;50.40;26.20;;;;;;;4.61;80.45;100466.95;217696;1257;140371;-68
2023/02/16 09:02:48;;;;;;;47.50;24.50;;;;;;;4.70;79.98;100467.46;217660;1257;140810;-66
2023/02/16 09:07:53;;;;;;;44.30;24.10;;;;;;;4.77;79.99;100463.44;218416;1257;139974;-67
2023/02/16 09:12:57;;;;;;;53.00;26.00;;;;;;;4.91;79.90;100463.38;218457;1257;140468;-67
2023/02/16 09:18:02;;;;;;;44.20;22.60;;;;;;;5.04;79.87;100463.15;217634;1259;139685;-66
2023/02/16 09:23:09;;;;;;;46.80;28.40;;;;;;;5.19;79.69;100465.77;219115;1257;139503;-66
2023/02/16 09:28:14;;;;;;;49.30;24.30;;;;;;;5.35;79.29;100462.91;218043;1257;139755;-67
2023/02/16 09:33:20;;;;;;;41.20;22.90;;;;;;;5.48;79.20;100455.80;217492;1257;141405;-68
2023/02/16 09:38:26;;;;;;;45.60;24.70;;;;;;;5.59;78.72;100444.03;217702;1259;139937;-67
2023/02/16 09:43:41;;;;;;;45.80;25.90;;;;;;;5.74;78.45;100444.44;218382;1257;139712;-65
2023/02/16 09:48:49;;;;;;;40.80;22.30;;;;;;;5.93;78.51;100440.42;217640;1257;141556;-65
2023/02/16 09:54:23;;;;;;;39.50;20.60;;;;;;;6.05;78.41;100437.00;217741;1257;139994;-66
2023/02/16 09:59:41;;;;;;;44.60;24.40;;;;;;;6.16;78.40;100429.95;217768;1257;139454;-67
2023/02/16 10:05:01;;;;;;;;;;;;;;;6.33;77.95;100429.60;217706;1257;140282;-68
2023/02/16 10:10:10;;;;;;;45.60;22.50;;;;;;;6.52;77.55;100427.99;218188;1257;127045;-66
2023/02/16 10:15:22;;;;;;;40.60;22.10;;;;;;;6.76;77.76;100424.76;217770;1258;139232;-67
2023/02/16 10:20:39;;;;;;;43.20;23.40;;;;;;;6.92;76.81;100419.73;218067;1259;139619;-67
2023/02/16 10:25:55;;;;;;;33.30;18.10;;;;;;;7.00;76.64;100432.77;217747;1257;140859;-67
2023/02/16 10:31:11;;;;;;;40.30;26.20;;;;;;;7.14;76.21;100429.48;218673;1257;140970;-71
2023/02/16 10:36:46;;;;;;;38.00;21.30;;;;;;;7.23;76.57;100424.00;219311;1256;139844;-67
2023/02/16 10:42:23;;;;;;;39.20;21.70;;;;;;;7.33;75.87;100424.13;217805;1257;140357;-68
2023/02/16 10:47:35;;;;;;;40.40;22.10;;;;;;;7.39;75.57;100424.84;219575;1256;139963;-70
2023/02/16 10:52:41;;;;;;;40.30;21.30;;;;;;;7.47;75.59;100420.56;218206;1259;140217;-65
2023/02/16 10:57:53;;;;;;;39.60;22.00;;;;;;;7.58;75.10;100418.66;218925;1257;141407;-67
2023/02/16 11:03:02;;;;;;;36.10;19.80;;;;;;;7.72;75.10;100415.88;218441;1257;140635;-66
2023/02/16 11:08:11;;;;;;;37.30;21.20;;;;;;;7.87;74.91;100415.55;217853;1259;139499;-67
2023/02/16 11:13:33;;;;;;;41.00;22.40;;;;;;;7.98;74.58;100414.14;217910;1257;140269;-66
2023/02/16 11:18:44;;;;;;;38.10;20.10;;;;;;;8.11;74.47;100420.55;219200;1257;140416;-68
2023/02/16 11:24:01;;;;;;;39.60;21.70;;;;;;;8.21;74.06;100415.47;218412;1260;140084;-70
2023/02/16 11:29:18;;;;;;;36.90;20.70;;;;;;;8.12;73.57;100412.26;217529;1259;140176;-72
2023/02/16 11:34:50;;;;;;;37.90;21.00;;;;;;;8.11;73.65;100414.17;218579;1259;140591;-73
2023/02/16 11:39:58;;;;;;;31.90;19.50;;;;;;;8.25;73.39;100412.44;217583;1260;139763;-68
2023/02/16 11:45:03;;;;;;;;;;;;;;;8.40;73.35;100407.64;217623;1257;140880;-68
2023/02/16 11:50:27;;;;;;;31.50;18.30;;;;;;;8.57;73.52;100400.21;218839;1257;126355;-68
2023/02/16 11:55:32;;;;;;;36.40;21.70;;;;;;;8.65;73.23;100397.70;217703;1256;140062;-66
2023/02/16 12:00:36;;;;;;;41.20;21.60;;;;;;;8.71;72.68;100393.79;218644;1257;141208;-70
2023/02/16 12:06:01;;;;;;;35.30;20.80;;;;;;;8.74;72.66;100393.09;217709;1260;139577;-70
2023/02/16 12:11:47;;;;;;;36.20;21.70;;;;;;;8.83;72.70;100394.02;218360;1257;139477;-68
2023/02/16 12:17:19;;;;;;;33.80;20.80;;;;;;;8.79;72.34;100391.20;217609;1257;139532;-68
2023/02/16 12:22:33;;;;;;;37.80;23.60;;;;;;;8.79;72.11;100389.16;218525;1256;139663;-67
2023/02/16 12:27:59;;;;;;;27.70;16.50;;;;;;;8.70;71.80;100382.30;219999;1260;140682;-67
2023/02/16 12:33:27;;;;;;;36.50;21.20;;;;;;;8.63;71.75;100374.13;217587;1257;140624;-70
2023/02/16 12:39:12;;;;;;;39.30;22.70;;;;;;;8.50;71.66;100374.95;217540;1261;140268;-68
2023/02/16 12:44:36;;;;;;;39.10;21.90;;;;;;;8.43;71.64;100371.60;220304;1257;142266;-69
2023/02/16 12:49:58;;;;;;;35.70;20.30;;;;;;;8.36;71.72;100369.31;218328;1260;141511;-66
2023/02/16 12:55:30;;;;;;;41.40;24.50;;;;;;;8.39;71.60;100360.33;218260;1257;140426;-73
2023/02/16 13:00:48;;;;;;;32.80;19.10;;;;;;;8.35;71.43;100359.20;218478;1259;139688;-67
2023/02/16 13:06:02;;;;;;;;;;;;;;;8.31;71.54;100353.52;219143;1260;139427;-68
2023/02/16 13:11:29;;;;;;;37.30;21.00;;;;;;;8.21;71.23;100357.98;217829;1260;126339;-66
2023/02/16 13:16:50;;;;;;;37.90;22.30;;;;;;;8.22;71.53;100361.86;219213;1256;140827;-65
2023/02/16 13:22:16;;;;;;;38.70;23.00;;;;;;;8.24;71.45;100362.55;218834;1257;141438;-67
2023/02/16 13:27:44;;;;;;;45.20;25.00;;;;;;;8.17;71.27;100360.05;217813;1260;139717;-67
2023/02/16 13:33:19;;;;;;;50.80;26.20;;;;;;;8.07;71.48;100358.33;217481;1258;139449;-68
2023/02/16 13:38:50;;;;;;;46.70;26.10;;;;;;;7.90;71.20;100364.68;217782;1259;139689;-70
2023/02/16 13:44:07;;;;;;;32.30;21.40;;;;;;;7.79;71.48;100362.09;217654;1260;140605;-67
2023/02/16 13:49:37;;;;;;;36.90;22.80;;;;;;;7.76;71.56;100355.02;217544;1258;140215;-66
2023/02/16 13:54:48;;;;;;;34.30;20.60;;;;;;;7.65;71.38;100350.48;218079;1259;139622;-65
2023/02/16 14:00:04;;;;;;;40.00;23.30;;;;;;;7.58;71.56;100343.71;217790;1257;139698;-66
2023/02/16 14:05:24;;;;;;;40.80;23.40;;;;;;;7.62;71.93;100342.88;217500;1260;140170;-67
2023/02/16 14:10:57;;;;;;;34.30;20.50;;;;;;;7.78;71.99;100341.17;218207;1262;139202;-68
2023/02/16 14:16:24;;;;;;;46.40;23.90;;;;;;;7.89;71.42;100333.03;218985;1260;140507;-67
2023/02/16 14:21:41;;;;;;;36.60;20.10;;;;;;;7.98;71.45;100337.67;218449;1257;139868;-68
2023/02/16 14:26:54;;;;;;;;;;;;;;;8.00;71.35;100331.55;218687;1257;140117;-67
2023/02/16 14:32:32;;;;;;;37.50;19.20;;;;;;;7.92;71.41;100336.30;220099;1257;125669;-68
2023/02/16 14:38:20;;;;;;;36.20;21.50;;;;;;;7.87;71.50;100334.66;220524;1256;140379;-65
2023/02/16 14:43:30;;;;;;;38.00;21.50;;;;;;;7.82;71.27;100331.88;220295;1257;140755;-69
2023/02/16 14:49:12;;;;;;;33.70;21.10;;;;;;;7.79;71.53;100324.11;217484;1257;140907;-71
2023/02/16 14:54:58;;;;;;;45.20;20.50;;;;;;;7.63;71.19;100308.13;217701;1257;150614;-73
2023/02/16 15:00:41;;;;;;;41.40;21.20;;;;;;;7.41;71.16;100304.52;218936;1257;139746;-68
2023/02/16 15:05:58;;;;;;;40.90;22.20;;;;;;;7.26;71.16;100296.56;217298;1260;139219;-69
2023/02/16 15:11:18;;;;;;;43.40;22.70;;;;;;;7.17;71.42;100293.80;217732;1256;140175;-69
2023/02/16 15:16:22;;;;;;;36.30;21.40;;;;;;;7.08;71.67;100288.95;217729;1258;140624;-69
2023/02/16 15:21:29;;;;;;;39.10;19.70;;;;;;;7.02;71.95;100283.46;217466;1257;140301;-68
2023/02/16 15:26:37;;;;;;;32.70;19.60;;;;;;;6.97;72.08;100280.03;217775;1258;139163;-68
2023/02/16 15:31:42;;;;;;;38.50;20.10;;;;;;;6.87;72.34;100283.77;218134;1256;139520;-69
2023/02/16 15:36:47;;;;;;;46.30;26.20;;;;;;;6.75;71.92;100280.77;217131;1257;140007;-69
2023/02/16 15:41:54;;;;;;;43.80;21.40;;;;;;;6.67;72.44;100285.52;217686;1257;140422;-72
2023/02/16 15:47:16;;;;;;;41.90;23.20;;;;;;;6.58;72.17;100286.28;217143;1260;140237;-71
2023/02/16 15:52:47;;;;;;;46.20;22.60;;;;;;;6.44;72.65;100282.92;218425;1257;141799;-71
2023/02/16 15:57:52;;;;;;;43.00;22.40;;;;;;;6.27;72.61;100276.09;217259;1257;139413;-69
2023/02/16 16:03:00;;;;;;;38.20;23.20;;;;;;;6.08;72.86;100266.65;217183;1258;139784;-73
2023/02/16 16:08:07;;;;;;;40.00;22.40;;;;;;;5.89;72.80;100270.00;217368;1257;247148;-68
2023/02/16 16:13:26;;;;;;;48.30;24.90;;;;;;;5.76;72.93;100266.81;217283;1260;139810;-71
2023/02/16 16:18:36;;;;;;;46.10;25.80;;;;;;;5.64;72.74;100270.52;218283;1257;140408;-69
2023/02/16 16:23:41;;;;;;;41.70;23.00;;;;;;;5.54;73.13;100273.75;217329;1257;139144;-66
2023/02/16 16:28:45;;;;;;;39.80;23.20;;;;;;;5.44;73.40;100278.02;220230;1257;141613;-68
2023/02/16 16:34:05;;;;;;;42.20;22.30;;;;;;;5.32;73.02;100283.30;219828;1257;139960;-67
2023/02/16 16:39:22;;;;;;;40.60;22.30;;;;;;;5.21;73.47;100284.60;220291;1257;139248;-66
2023/02/16 16:44:32;;;;;;;37.90;22.40;;;;;;;5.11;73.54;100286.78;218852;1257;141030;-68
2023/02/16 16:49:37;;;;;;;37.40;21.60;;;;;;;5.03;73.40;100284.36;219490;1257;141663;-65
2023/02/16 16:54:45;;;;;;;39.70;23.40;;;;;;;4.93;73.29;100287.73;217188;1258;139791;-66
2023/02/16 16:59:52;;;;;;;41.80;21.80;;;;;;;4.79;73.64;100287.81;218082;1257;140685;-67
2023/02/16 17:04:59;;;;;;;45.90;24.70;;;;;;;4.66;73.65;100286.96;218201;1260;140072;-66
2023/02/16 17:10:08;;;;;;;39.20;21.20;;;;;;;4.54;73.90;100284.21;217922;1257;139754;-66
2023/02/16 17:15:37;;;;;;;48.20;25.40;;;;;;;4.39;74.16;100282.79;217966;1257;139313;-71
2023/02/16 17:20:44;;;;;;;53.00;25.60;;;;;;;4.25;74.14;100295.18;218171;1258;141675;-75
2023/02/16 17:25:53;;;;;;;43.50;22.90;;;;;;;4.15;73.98;100293.56;217320;1257;141133;-69
2023/02/16 17:31:05;;;;;;;45.60;23.00;;;;;;;4.03;74.58;100297.02;217168;1257;140349;-68
2023/02/16 17:36:13;;;;;;;38.80;23.10;;;;;;;3.96;74.54;100300.06;217813;1259;139597;-68
2023/02/16 17:41:28;;;;;;;50.80;25.20;;;;;;;3.84;74.66;100299.14;217469;1257;140209;-68
2023/02/16 17:46:33;;;;;;;42.60;21.80;;;;;;;3.71;74.69;100304.27;217156;1260;139678;-68
2023/02/16 17:51:38;;;;;;;46.30;22.30;;;;;;;3.62;74.79;100307.45;217111;1257;139995;-67
2023/02/16 17:56:45;;;;;;;51.70;26.80;;;;;;;3.57;75.17;100310.72;217080;1260;139969;-71
2023/02/16 18:01:51;;;;;;;42.40;25.60;;;;;;;3.54;75.61;100310.52;217675;1257;139517;-68
2023/02/16 18:06:57;;;;;;;50.40;30.10;;;;;;;3.50;75.90;100307.66;217251;1256;139564;-68
2023/02/16 18:12:05;;;;;;;60.40;25.50;;;;;;;3.43;75.89;100304.27;219320;1257;138854;-70
2023/02/16 18:17:11;;;;;;;62.10;32.30;;;;;;;3.42;75.80;100304.90;219217;1256;141916;-66
2023/02/16 18:22:18;;;;;;;66.50;32.30;;;;;;;3.39;76.02;100299.71;217194;1256;140082;-67
2023/02/16 18:27:25;;;;;;;;;;;;;;;3.34;76.05;100300.67;220170;1257;140255;-77
2023/02/16 18:32:36;;;;;;;49.00;30.30;;;;;;;3.26;76.35;100300.23;219348;1257;125525;-67
2023/02/16 18:37:42;;;;;;;57.00;29.40;;;;;;;3.21;76.42;100300.59;219467;1256;139921;-72
2023/02/16 18:42:48;;;;;;;61.70;31.50;;;;;;;3.23;76.55;100304.40;219606;1260;139981;-67
2023/02/16 18:47:58;;;;;;;69.40;34.90;;;;;;;3.29;76.76;100309.88;218299;1256;140172;-70
2023/02/16 18:53:09;;;;;;;49.10;30.10;;;;;;;3.29;76.65;100308.75;218882;1257;139494;-67
2023/02/16 18:58:15;;;;;;;55.40;31.70;;;;;;;3.22;76.72;100308.42;218712;1256;139725;-66
2023/02/16 19:03:20;;;;;;;77.80;37.40;;;;;;;3.08;76.72;100295.42;218139;1256;139439;-66
2023/02/16 19:08:26;;;;;;;59.30;27.80;;;;;;;2.94;76.68;100293.09;217894;1260;140197;-65
2023/02/16 19:13:33;;;;;;;64.90;31.30;;;;;;;2.91;76.94;100290.60;217981;1257;140701;-68
2023/02/16 19:18:38;;;;;;;61.10;30.00;;;;;;;2.88;77.10;100294.13;218243;1257;139483;-68
2023/02/16 19:23:44;;;;;;;57.10;29.70;;;;;;;2.82;77.41;100298.98;218317;1256;140039;-66
2023/02/16 19:28:50;;;;;;;58.60;29.30;;;;;;;2.77;77.59;100300.66;217492;1260;139283;-71
2023/02/16 19:33:57;;;;;;;61.10;30.40;;;;;;;2.79;77.60;100302.73;218601;1260;140823;-72
2023/02/16 19:39:05;;;;;;;63.80;30.50;;;;;;;2.78;77.57;100300.31;217575;1257;141014;-68
2023/02/16 19:44:11;;;;;;;58.50;28.90;;;;;;;2.73;77.50;100300.39;217670;1257;139969;-67
2023/02/16 19:49:18;;;;;;;55.60;31.60;;;;;;;2.63;77.64;100292.32;217816;1256;140034;-68
2023/02/16 19:54:26;;;;;;;58.30;28.10;;;;;;;2.54;77.55;100284.95;217315;1259;139434;-73
2023/02/16 19:59:32;;;;;;;61.90;29.10;;;;;;;2.50;77.51;100280.70;218118;1256;140689;-69
2023/02/16 20:04:38;;;;;;;63.80;32.20;;;;;;;2.46;77.76;100276.39;219026;1256;139010;-74
2023/02/16 20:09:44;;;;;;;51.50;28.50;;;;;;;2.41;78.09;100274.64;218430;1256;138919;-74
2023/02/16 20:14:49;;;;;;;60.40;29.20;;;;;;;2.37;77.95;100277.93;219107;1256;139478;-70
2023/02/16 20:19:53;;;;;;;61.30;28.90;;;;;;;2.29;77.87;100278.86;220543;1256;139560;-68
2023/02/16 20:24:58;;;;;;;55.10;30.90;;;;;;;2.26;77.76;100274.83;218197;1256;140116;-74
2023/02/16 20:30:07;;;;;;;54.20;30.00;;;;;;;2.25;78.03;100272.72;217254;1257;139243;-73
2023/02/16 20:35:11;;;;;;;58.00;29.80;;;;;;;2.23;78.35;100272.56;219231;1257;138976;-69
2023/02/16 20:40:15;;;;;;;71.40;29.10;;;;;;;2.24;78.51;100274.54;217987;1257;783099;-70
2023/02/16 20:45:20;;;;;;;57.90;30.20;;;;;;;2.27;78.53;100268.38;218532;1256;139297;-68
2023/02/16 20:50:25;;;;;;;61.90;31.60;;;;;;;2.31;78.78;100268.21;219229;1256;140229;-71
2023/02/16 20:55:30;;;;;;;61.30;32.50;;;;;;;2.34;79.26;100269.91;217834;1257;140479;-76
2023/02/16 21:00:35;;;;;;;62.60;31.90;;;;;;;2.37;79.09;100272.28;217537;1260;140260;-73
2023/02/16 21:05:39;;;;;;;56.20;30.60;;;;;;;2.39;79.43;100268.56;217924;1256;140609;-71
2023/02/16 21:10:45;;;;;;;71.30;32.90;;;;;;;2.44;79.58;100268.18;217354;1256;140171;-68
2023/02/16 21:15:51;;;;;;;59.60;32.30;;;;;;;2.45;79.36;100266.81;217588;1259;139546;-72
2023/02/16 21:20:54;;;;;;;62.00;28.30;;;;;;;2.45;79.42;100268.23;217637;1257;140581;-71
2023/02/16 21:26:04;;;;;;;62.80;29.50;;;;;;;2.42;79.42;100265.66;217727;1256;139975;-70
2023/02/16 21:31:18;;;;;;;57.10;32.40;;;;;;;2.42;79.44;100269.44;218241;1256;139942;-70
2023/02/16 21:36:26;;;;;;;63.80;32.70;;;;;;;2.45;79.63;100265.83;217526;1257;139726;-73
2023/02/16 21:41:30;;;;;;;56.40;32.00;;;;;;;2.38;79.26;100259.70;217410;1257;139291;-73
2023/02/16 21:46:38;;;;;;;68.70;32.50;;;;;;;2.35;79.48;100254.91;218614;1256;139555;-72
2023/02/16 21:51:43;;;;;;;;;;;;;;;2.33;79.70;100259.86;217498;1256;139565;-72
2023/02/16 21:56:49;;;;;;;64.20;32.20;;;;;;;2.38;80.12;100259.16;219040;1257;126063;-72
2023/02/16 22:01:54;;;;;;;67.30;33.30;;;;;;;2.47;80.25;100255.59;217761;1257;138978;-69
2023/02/16 22:06:59;;;;;;;62.80;34.70;;;;;;;2.53;80.38;100257.55;219260;1256;140147;-68
2023/02/16 22:12:04;;;;;;;56.90;31.50;;;;;;;2.55;80.28;100257.80;218527;1259;140412;-68
2023/02/16 22:17:08;;;;;;;71.80;31.10;;;;;;;2.58;80.26;100257.59;218843;1256;140400;-69
2023/02/16 22:22:13;;;;;;;57.40;30.40;;;;;;;2.68;80.32;100257.11;220317;1256;140148;-71
2023/02/16 22:27:17;;;;;;;59.30;30.30;;;;;;;2.74;80.24;100258.53;219721;1256;139760;-72
2023/02/16 22:32:21;;;;;;;57.00;29.80;;;;;;;2.80;80.41;100258.95;217524;1259;140087;-68
2023/02/16 22:37:27;;;;;;;65.70;33.80;;;;;;;2.81;80.32;100257.52;217626;1256;140138;-69
2023/02/16 22:42:31;;;;;;;70.40;35.20;;;;;;;2.87;80.41;100254.77;217436;1256;139578;-70
2023/02/16 22:47:35;;;;;;;63.20;32.00;;;;;;;2.90;80.47;100250.22;217744;1257;140169;-69
2023/02/16 22:52:40;;;;;;;68.40;34.60;;;;;;;2.93;80.65;100243.73;217559;1256;139410;-70
2023/02/16 22:57:47;;;;;;;63.70;30.80;;;;;;;2.97;80.73;100240.31;217649;1260;139520;-69
2023/02/16 23:02:51;;;;;;;52.50;27.90;;;;;;;3.01;80.54;100234.94;218138;1257;139773;-68
2023/02/16 23:07:56;;;;;;;59.20;30.30;;;;;;;3.00;80.49;100234.96;217810;1257;139799;-67
2023/02/16 23:13:03;;;;;;;62.90;30.40;;;;;;;3.01;80.56;100229.91;218145;1256;139337;-69
2023/02/16 23:18:08;;;;;;;65.40;33.30;;;;;;;3.02;80.64;100224.71;217696;1257;138454;-68
2023/02/16 23:23:14;;;;;;;66.40;29.80;;;;;;;3.02;80.60;100229.30;218333;1256;139685;-69
2023/02/16 23:28:19;;;;;;;63.20;33.50;;;;;;;3.05;80.45;100215.84;218096;1256;140729;-70
2023/02/16 23:33:24;;;;;;;65.00;31.70;;;;;;;3.09;80.62;100219.95;217702;1257;139888;-70
2023/02/16 23:38:29;;;;;;;51.90;28.40;;;;;;;3.13;80.70;100217.88;217894;1257;139440;-67
2023/02/16 23:43:34;;;;;;;66.90;29.60;;;;;;;3.10;80.57;100220.20;217603;1256;141071;-69
2023/02/16 23:48:37;;;;;;;60.40;31.00;;;;;;;3.10;80.61;100215.98;217755;1257;138609;-70
2023/02/16 23:53:43;;;;;;;58.10;30.50;;;;;;;3.14;80.42;100210.83;217501;1259;140493;-68
2023/02/16 23:58:48;;;;;;;56.00;27.90;;;;;;;3.13;80.54;100206.98;217638;1259;140507;-69
